Time;durP1;ratioP1;P1;durP2;ratioP2;P2;SDS_P1;SDS_P2;PMS_P1;PMS_P2;Temp;Humidity;BMP_temperature;BMP_pressure;BME280_temperature;BME280_humidity;BME280_pressure;Samples;Min_cycle;Max_cycle;Signal;HPM_P1;HPM_P2
2024/03/03 00:05:11;;;;;;;;;;;6.40;1.00;;;;;;5048159;28;19962;-77
2024/03/03 00:08:05;;;;;;;;;;;6.40;1.00;;;;;;5034697;28;19913;-77
2024/03/03 00:10:35;;;;;;;;;;;6.30;1.00;;;;;;5041916;28;19916;-76
2024/03/03 00:13:05;;;;;;;;;;;6.30;1.00;;;;;;5040524;28;20004;-76
2024/03/03 00:15:35;;;;;;;;;;;6.30;1.00;;;;;;5034569;28;19936;-77
2024/03/03 00:18:11;;;;;;;;;;;6.30;1.00;;;;;;5041693;28;19920;-77
2024/03/03 00:21:05;;;;;;;;;;;6.40;1.00;;;;;;5044762;28;20006;-76
2024/03/03 00:23:36;;;;;;;;;;;6.40;1.00;;;;;;5015224;28;19914;-76
2024/03/03 00:26:35;;;;;;;;;;;6.30;1.00;;;;;;5032118;28;19958;-76
2024/03/03 00:29:05;;;;;;;;;;;6.40;1.00;;;;;;5041664;28;19909;-76
2024/03/03 00:31:41;;;;;;;;;;;6.30;1.00;;;;;;5053750;28;20285;-76
2024/03/03 00:34:29;;;;;;;;;;;6.20;1.00;;;;;;5039859;28;20325;-76
2024/03/03 00:37:05;;;;;;;;;;;6.20;1.00;;;;;;5034307;28;19910;-76
2024/03/03 00:39:53;;;;;;;;;;;6.20;1.00;;;;;;5051439;28;19915;-77
2024/03/03 00:42:23;;;;;;;;;;;6.10;1.00;;;;;;5040711;28;19916;-77
2024/03/03 00:44:59;;;;;;;;;;;6.10;1.00;;;;;;5045012;28;19936;-77
2024/03/03 00:47:42;;;;;;;;;;;6.10;1.00;;;;;;5034108;28;19914;-77
2024/03/03 00:50:29;;;;;;;;;;;6.00;1.00;;;;;;5036905;28;19920;-77
2024/03/03 00:53:00;;;;;;;;;;;5.90;1.00;;;;;;5053968;28;19942;-76
2024/03/03 00:55:25;;;;;;;;;;;6.00;1.00;;;;;;5054041;28;20310;-77
2024/03/03 00:57:59;;;;;;;;;;;6.00;1.00;;;;;;5054011;28;19912;-76
2024/03/03 01:00:35;;;;;;;;;;;6.00;1.00;;;;;;5054054;28;19909;-77
2024/03/03 01:03:01;;;;;;;;;;;6.00;1.00;;;;;;5030766;28;19913;-77
2024/03/03 01:08:41;;;;;;;;;;;5.90;1.00;;;;;;5045348;28;20290;-77
2024/03/03 01:11:11;;;;;;;;;;;5.90;1.00;;;;;;5045270;28;20043;-77
2024/03/03 01:16:54;;;;;;;;;;;5.90;1.00;;;;;;5045182;28;20269;-76
2024/03/03 01:19:29;;;;;;;;;;;5.90;1.00;;;;;;5037836;28;19996;-76
2024/03/03 01:21:55;;;;;;;;;;;5.90;1.00;;;;;;5037599;28;19913;-77
2024/03/03 01:24:20;;;;;;;;;;;6.20;1.00;;;;;;5046464;28;20419;-77
2024/03/03 01:27:11;;;;;;;;;;;5.90;1.00;;;;;;5057658;28;19997;-77
2024/03/03 01:30:05;;;;;;;;;;;5.90;1.00;;;;;;5045764;28;19916;-77
2024/03/03 01:32:59;;;;;;;;;;;5.80;1.00;;;;;;5046784;28;19916;-77
2024/03/03 01:38:36;;;;;;;;;;;5.80;1.00;;;;;;5035125;28;19917;-76
2024/03/03 01:47:09;;;;;;;;;;;6.30;2.60;;;;;;5037300;28;20424;-77
2024/03/03 01:49:54;;;;;;;;;;;6.30;6.20;;;;;;5050890;28;19909;-77
2024/03/03 01:52:25;;;;;;;;;;;6.60;11.20;;;;;;5038443;28;19916;-77
2024/03/03 01:54:54;;;;;;;;;;;6.60;14.40;;;;;;5044802;28;19915;-77
2024/03/03 02:00:35;;;;;;;;;;;6.80;11.90;;;;;;5036942;28;19909;-77
2024/03/03 02:03:18;;;;;;;;;;;6.90;8.40;;;;;;5039086;28;19912;-77
2024/03/03 02:06:05;;;;;;;;;;;7.00;2.90;;;;;;5050713;28;19917;-77
2024/03/03 02:11:34;;;;;;;;;;;7.00;1.00;;;;;;5036490;28;20431;-77
2024/03/03 02:14:11;;;;;;;;;;;7.20;1.00;;;;;;5036699;28;19948;-77
2024/03/03 02:19:41;;;;;;;;;;;7.30;1.00;;;;;;5047914;28;20287;-77
2024/03/03 02:31:41;;;;;;;;;;;7.40;1.00;;;;;;5036111;28;19995;-77
2024/03/03 02:34:11;;;;;;;;;;;7.40;1.00;;;;;;5034767;28;19910;-77
2024/03/03 02:36:53;;;;;;;;;;;7.30;1.00;;;;;;5053928;28;19913;-77
2024/03/03 02:39:35;;;;;;;;;;;7.20;1.00;;;;;;5036187;28;19915;-77
2024/03/03 02:48:30;;;;;;;;;;;7.30;1.00;;;;;;5039094;28;19963;-77
2024/03/03 02:51:17;;;;;;;;;;;7.30;1.00;;;;;;5041737;28;20061;-77
2024/03/03 02:56:53;;;;;;;;;;;7.20;1.00;;;;;;5044601;28;19916;-76
2024/03/03 02:59:41;;;;;;;;;;;7.20;1.00;;;;;;5052275;28;19913;-77
2024/03/03 03:02:41;;;;;;;;;;;7.10;1.00;;;;;;5036210;28;19909;-77
2024/03/03 03:05:11;;;;;;;;;;;7.10;1.00;;;;;;5035731;28;19963;-77
2024/03/03 03:07:54;;;;;;;;;;;6.90;1.00;;;;;;5050627;28;20008;-77
2024/03/03 03:10:47;;;;;;;;;;;6.70;1.00;;;;;;5049999;28;19913;-77
2024/03/03 03:13:41;;;;;;;;;;;6.70;1.00;;;;;;5050696;28;20380;-77
2024/03/03 03:16:17;;;;;;;;;;;6.60;1.00;;;;;;5034515;28;19920;-77
2024/03/03 03:18:47;;;;;;;;;;;6.50;1.00;;;;;;5039719;28;19948;-77
2024/03/03 03:24:16;;;;;;;;;;;6.20;1.00;;;;;;5044583;28;19999;-76
2024/03/03 03:29:45;;;;;;;;;;;6.20;1.00;;;;;;5043022;28;19919;-77
2024/03/03 03:38:23;;;;;;;;;;;6.00;1.00;;;;;;5042359;28;20039;-77
2024/03/03 03:40:53;;;;;;;;;;;5.90;1.00;;;;;;5037833;28;19922;-78
2024/03/03 03:43:19;;;;;;;;;;;5.90;1.00;;;;;;5048529;28;19996;-77
2024/03/03 03:45:45;;;;;;;;;;;5.90;1.00;;;;;;5035110;28;20009;-77
2024/03/03 03:48:11;;;;;;;;;;;5.80;1.00;;;;;;5040255;28;19970;-77
2024/03/03 03:50:37;;;;;;;;;;;5.70;1.00;;;;;;5042666;28;19921;-77
2024/03/03 03:53:05;;;;;;;;;;;5.80;1.00;;;;;;5021739;28;20003;-77
2024/03/03 03:55:35;;;;;;;;;;;5.80;1.00;;;;;;5034683;28;19913;-76
2024/03/03 03:58:05;;;;;;;;;;;5.70;1.00;;;;;;5037695;28;19939;-77
2024/03/03 04:04:11;;;;;;;;;;;5.80;1.00;;;;;;5042016;28;20276;-77
2024/03/03 04:07:01;;;;;;;;;;;5.70;1.00;;;;;;5044718;28;19923;-77
2024/03/03 04:09:42;;;;;;;;;;;5.70;1.00;;;;;;5044171;28;19913;-77
2024/03/03 04:15:42;;;;;;;;;;;5.50;1.00;;;;;;5037045;28;19936;-77
2024/03/03 04:18:07;;;;;;;;;;;5.50;1.00;;;;;;5016900;28;19910;-77
2024/03/03 04:20:41;;;;;;;;;;;5.50;1.00;;;;;;5054435;28;19909;-77
2024/03/03 04:26:42;;;;;;;;;;;5.40;1.00;;;;;;5036837;28;19990;-77
2024/03/03 04:29:12;;;;;;;;;;;5.30;1.00;;;;;;5034200;28;19937;-77
2024/03/03 04:31:59;;;;;;;;;;;5.40;1.00;;;;;;5019625;28;20331;-77
2024/03/03 04:37:41;;;;;;;;;;;5.40;1.00;;;;;;5035379;28;20421;-77
2024/03/03 04:40:43;;;;;;;;;;;5.40;1.00;;;;;;5047573;28;19910;-76
2024/03/03 04:49:15;;;;;;;;;;;5.30;1.00;;;;;;5046719;28;19955;-77
2024/03/03 04:51:41;;;;;;;;;;;5.30;1.00;;;;;;5052985;28;19909;-75
2024/03/03 04:54:07;;;;;;;;;;;5.30;1.00;;;;;;5047623;28;19955;-76
2024/03/03 04:56:41;;;;;;;;;;;5.20;1.00;;;;;;5036641;28;19909;-77
2024/03/03 05:02:41;;;;;;;;;;;5.20;2.20;;;;;;5031970;28;19920;-77
2024/03/03 05:05:07;;;;;;;;;;;5.20;7.40;;;;;;5033934;28;19999;-77
2024/03/03 05:07:33;;;;;;;;;;;5.20;5.30;;;;;;5029625;28;19996;-77
2024/03/03 05:10:06;;;;;;;;;;;5.10;4.90;;;;;;5044557;28;19909;-77
2024/03/03 05:12:35;;;;;;;;;;;5.20;6.30;;;;;;5034497;28;19917;-77
2024/03/03 05:15:06;;;;;;;;;;;5.10;4.80;;;;;;5034000;28;19916;-77
2024/03/03 05:17:31;;;;;;;;;;;5.10;3.00;;;;;;5033616;28;20361;-78
2024/03/03 05:19:57;;;;;;;;;;;5.20;6.00;;;;;;5046014;28;19996;-77
2024/03/03 05:22:24;;;;;;;;;;;5.10;7.20;;;;;;5034913;28;19913;-77
2024/03/03 05:24:53;;;;;;;;;;;5.10;5.00;;;;;;5025867;28;19913;-77
2024/03/03 05:27:30;;;;;;;;;;;5.10;8.20;;;;;;5042577;28;19912;-77
2024/03/03 05:29:55;;;;;;;;;;;5.20;7.00;;;;;;5040171;28;20257;-77
2024/03/03 05:32:22;;;;;;;;;;;5.20;10.00;;;;;;5039668;28;19916;-77
2024/03/03 05:34:54;;;;;;;;;;;5.20;11.40;;;;;;5040252;28;19959;-77
2024/03/03 05:37:41;;;;;;;;;;;5.30;9.30;;;;;;5025358;28;19909;-77
2024/03/03 05:40:11;;;;;;;;;;;5.30;9.40;;;;;;5043972;28;19984;-77
2024/03/03 05:45:42;;;;;;;;;;;5.30;12.30;;;;;;5037862;28;20439;-78
2024/03/03 05:51:24;;;;;;;;;;;5.40;11.20;;;;;;5043656;28;19916;-77
2024/03/03 05:54:12;;;;;;;;;;;5.50;11.30;;;;;;5039374;28;19916;-78
2024/03/03 05:57:13;;;;;;;;;;;5.50;11.70;;;;;;5050416;28;19909;-77
2024/03/03 05:59:53;;;;;;;;;;;5.60;11.40;;;;;;5037217;28;19909;-77
2024/03/03 06:05:22;;;;;;;;;;;5.60;11.80;;;;;;5049892;28;20628;-77
2024/03/03 06:07:47;;;;;;;;;;;5.70;13.70;;;;;;5049934;28;19917;-77
2024/03/03 06:13:35;;;;;;;;;;;5.80;15.60;;;;;;5036762;28;19947;-77
2024/03/03 06:16:35;;;;;;;;;;;5.80;15.20;;;;;;5044047;28;19920;-77
2024/03/03 06:22:04;;;;;;;;;;;5.90;13.50;;;;;;5035218;28;19975;-77
2024/03/03 06:24:41;;;;;;;;;;;5.90;12.90;;;;;;5033789;28;20352;-77
2024/03/03 06:27:23;;;;;;;;;;;5.90;8.70;;;;;;5056616;28;19948;-77
2024/03/03 06:30:14;;;;;;;;;;;5.90;9.80;;;;;;5042445;28;19913;-77
2024/03/03 06:54:01;;;;;;;;;;;6.40;13.30;;;;;;5030177;28;20012;-78
2024/03/03 06:56:47;;;;;;;;;;;6.50;9.60;;;;;;5029430;28;20392;-79
2024/03/03 07:05:19;;;;;;;;;;;6.90;5.90;;;;;;5035673;28;20294;-76
2024/03/03 07:10:47;;;;;;;;;;;7.00;8.90;;;;;;5015892;28;19933;-77
2024/03/03 07:13:41;;;;;;;;;;;7.20;5.10;;;;;;5033039;28;20369;-77
2024/03/03 07:16:42;;;;;;;;;;;7.20;7.00;;;;;;5035617;28;19913;-77
2024/03/03 07:19:41;;;;;;;;;;;7.40;1.00;;;;;;5035781;28;20364;-77
2024/03/03 07:22:41;;;;;;;;;;;7.40;1.60;;;;;;5046141;28;19909;-77
2024/03/03 07:25:41;;;;;;;;;;;7.40;1.00;;;;;;5047086;28;19913;-77
2024/03/03 07:31:12;;;;;;;;;;;7.70;1.00;;;;;;5041091;28;19920;-77
2024/03/03 07:34:11;;;;;;;;;;;7.80;1.00;;;;;;5035200;28;19916;-77
2024/03/03 07:37:11;;;;;;;;;;;7.90;1.00;;;;;;5030824;28;20272;-77
2024/03/03 07:43:11;;;;;;;;;;;8.10;1.00;;;;;;5034813;28;19920;-78
2024/03/03 07:46:11;;;;;;;;;;;8.20;1.00;;;;;;5044120;28;19913;-77
2024/03/03 07:49:11;;;;;;;;;;;8.40;1.00;;;;;;5034878;28;19963;-77
2024/03/03 07:52:11;;;;;;;;;;;8.60;1.00;;;;;;5043696;28;19916;-76
2024/03/03 07:57:40;;;;;;;;;;;8.90;1.00;;;;;;5044568;28;19963;-78
2024/03/03 08:00:12;;;;;;;;;;;8.90;1.00;;;;;;5051802;28;19910;-77
2024/03/03 08:02:37;;;;;;;;;;;9.00;1.00;;;;;;5045509;28;20319;-77
2024/03/03 08:05:11;;;;;;;;;;;9.00;1.00;;;;;;5054738;28;19909;-77
2024/03/03 08:07:37;;;;;;;;;;;9.20;1.00;;;;;;5038795;28;19924;-78
2024/03/03 08:10:05;;;;;;;;;;;9.20;1.00;;;;;;5027749;28;19921;-81
2024/03/03 08:12:41;;;;;;;;;;;9.30;1.00;;;;;;5016657;28;20426;-78
2024/03/03 08:15:41;;;;;;;;;;;9.40;1.00;;;;;;5023552;28;19913;-78
2024/03/03 08:18:12;;;;;;;;;;;9.50;1.00;;;;;;5036097;28;19909;-78
2024/03/03 08:20:41;;;;;;;;;;;9.50;1.00;;;;;;5034882;28;19909;-78
2024/03/03 08:26:12;;;;;;;;;;;9.80;1.00;;;;;;5047458;28;19913;-77
2024/03/03 08:28:41;;;;;;;;;;;9.80;1.00;;;;;;5041852;28;19909;-77
2024/03/03 08:31:18;;;;;;;;;;;9.80;1.00;;;;;;5030035;28;19913;-77
2024/03/03 08:37:05;;;;;;;;;;;10.00;1.00;;;;;;5040566;28;20028;-75
2024/03/03 08:39:42;;;;;;;;;;;10.10;1.00;;;;;;5020017;28;19980;-77
2024/03/03 08:42:07;;;;;;;;;;;10.10;1.00;;;;;;5038265;28;19909;-77
2024/03/03 08:44:33;;;;;;;;;;;10.30;1.00;;;;;;5033638;28;19939;-77
2024/03/03 08:47:11;;;;;;;;;;;10.40;1.00;;;;;;5031517;28;19928;-77
2024/03/03 08:50:14;;;;;;;;;;;10.50;1.00;;;;;;5016709;28;19995;-77
2024/03/03 08:52:42;;;;;;;;;;;10.50;1.00;;;;;;5034659;28;19909;-77
2024/03/03 08:55:12;;;;;;;;;;;10.70;1.00;;;;;;5026102;28;20343;-77
2024/03/03 08:57:37;;;;;;;;;;;10.80;1.00;;;;;;5044189;28;19921;-77
2024/03/03 09:03:06;;;;;;;;;;;10.90;1.00;;;;;;5034368;28;19916;-76
2024/03/03 09:05:36;;;;;;;;;;;10.90;1.00;;;;;;5028695;28;19913;-75
2024/03/03 09:11:13;;;;;;;;;;;10.90;1.00;;;;;;5037008;28;20010;-74
2024/03/03 09:13:42;;;;;;;;;;;11.10;1.00;;;;;;5031268;28;19913;-76
2024/03/03 09:16:12;;;;;;;;;;;11.10;1.00;;;;;;5029252;28;19963;-75
2024/03/03 09:18:37;;;;;;;;;;;11.40;1.00;;;;;;5029755;28;19909;-74
2024/03/03 09:21:09;;;;;;;;;;;11.40;1.00;;;;;;5036559;28;20019;-75
2024/03/03 09:23:36;;;;;;;;;;;11.50;1.00;;;;;;5037802;28;19913;-75
2024/03/03 09:26:12;;;;;;;;;;;11.70;1.00;;;;;;5035147;28;19992;-75
2024/03/03 09:29:11;;;;;;;;;;;11.80;1.00;;;;;;5051249;28;19959;-74
2024/03/03 09:31:41;;;;;;;;;;;12.00;1.00;;;;;;5043512;28;19913;-74
2024/03/03 09:34:12;;;;;;;;;;;12.10;1.00;;;;;;5064357;28;20003;-75
2024/03/03 09:36:42;;;;;;;;;;;12.10;1.00;;;;;;5051358;28;19920;-75
2024/03/03 09:39:18;;;;;;;;;;;12.20;1.00;;;;;;5037178;28;19922;-76
2024/03/03 09:45:03;;;;;;;;;;;12.20;1.00;;;;;;5055067;28;19951;-76
2024/03/03 09:47:42;;;;;;;;;;;12.30;1.00;;;;;;5026122;28;19917;-77
2024/03/03 09:50:13;;;;;;;;;;;12.30;1.00;;;;;;5037681;28;20012;-77
2024/03/03 09:56:11;;;;;;;;;;;12.40;1.00;;;;;;5037419;28;19983;-76
2024/03/03 09:59:15;;;;;;;;;;;12.40;1.00;;;;;;5039370;28;19909;-77
2024/03/03 10:02:15;;;;;;;;;;;12.50;1.00;;;;;;5057059;28;19986;-77
2024/03/03 10:04:44;;;;;;;;;;;12.60;1.00;;;;;;5053103;28;19913;-77
2024/03/03 10:07:25;;;;;;;;;;;12.60;1.00;;;;;;5039867;28;20009;-77
2024/03/03 10:10:11;;;;;;;;;;;12.60;1.00;;;;;;5037238;28;19975;-77
2024/03/03 10:13:11;;;;;;;;;;;12.70;1.00;;;;;;5037471;28;19919;-76
2024/03/03 10:15:55;;;;;;;;;;;12.80;1.00;;;;;;5040331;28;19920;-77
2024/03/03 10:21:42;;;;;;;;;;;12.90;1.00;;;;;;5047371;28;20394;-77
2024/03/03 10:24:20;;;;;;;;;;;12.90;1.00;;;;;;5037727;28;19910;-77
2024/03/03 10:27:11;;;;;;;;;;;13.00;1.00;;;;;;5055287;28;19917;-76
2024/03/03 10:30:12;;;;;;;;;;;13.10;1.00;;;;;;5034318;28;19909;-76
2024/03/03 10:33:11;;;;;;;;;;;13.20;1.00;;;;;;5049767;28;19913;-76
2024/03/03 10:35:42;;;;;;;;;;;13.30;1.00;;;;;;5035593;28;19966;-76
2024/03/03 10:38:29;;;;;;;;;;;13.20;1.00;;;;;;5039847;28;19913;-76
2024/03/03 10:40:55;;;;;;;;;;;13.30;1.00;;;;;;5047533;28;19964;-77
2024/03/03 10:43:24;;;;;;;;;;;13.30;1.00;;;;;;5040565;28;19983;-78
2024/03/03 10:45:54;;;;;;;;;;;13.40;1.00;;;;;;5017165;28;20349;-78
2024/03/03 10:51:41;;;;;;;;;;;13.50;1.00;;;;;;5048908;28;19919;-77
2024/03/03 10:54:12;;;;;;;;;;;13.60;1.00;;;;;;5039305;28;19908;-77
2024/03/03 10:57:12;;;;;;;;;;;13.80;1.00;;;;;;5041480;28;19913;-76
2024/03/03 11:06:12;;;;;;;;;;;14.10;1.00;;;;;;5049215;28;19909;-76
2024/03/03 11:08:49;;;;;;;;;;;14.20;1.00;;;;;;5049221;28;19925;-76
2024/03/03 11:14:18;;;;;;;;;;;14.30;1.00;;;;;;5042865;28;20005;-77
2024/03/03 11:16:49;;;;;;;;;;;14.30;1.00;;;;;;5030923;28;20315;-77
2024/03/03 11:19:42;;;;;;;;;;;14.40;1.00;;;;;;5045214;28;19999;-78
2024/03/03 11:25:18;;;;;;;;;;;14.40;1.00;;;;;;5041135;28;20288;-77
2024/03/03 11:30:47;;;;;;;;;;;14.70;1.00;;;;;;5034433;28;19916;-76
2024/03/03 11:33:42;;;;;;;;;;;14.70;1.00;;;;;;5043622;28;19918;-85
2024/03/03 11:36:42;;;;;;;;;;;14.80;1.00;;;;;;5033349;28;19992;-82
2024/03/03 11:39:15;;;;;;;;;;;14.90;1.00;;;;;;5061623;28;19909;-85
2024/03/03 11:41:42;;;;;;;;;;;14.90;1.00;;;;;;5024480;28;20387;-83
2024/03/03 11:44:42;;;;;;;;;;;14.90;1.00;;;;;;5029859;28;19920;-82
2024/03/03 11:47:46;;;;;;;;;;;15.00;1.00;;;;;;5021789;28;19921;-82
2024/03/03 11:50:36;;;;;;;;;;;15.00;1.00;;;;;;5041794;28;19916;-83
2024/03/03 11:56:32;;;;;;;;;;;15.20;1.00;;;;;;5048885;28;19916;-84
2024/03/03 11:59:06;;;;;;;;;;;15.30;1.00;;;;;;5012016;28;19913;-84
2024/03/03 12:01:32;;;;;;;;;;;15.40;1.00;;;;;;4994239;28;19909;-85
2024/03/03 12:07:16;;;;;;;;;;;15.40;1.00;;;;;;5012123;28;19960;-85
2024/03/03 12:09:48;;;;;;;;;;;15.60;1.00;;;;;;4995508;28;20024;-85
2024/03/03 12:12:24;;;;;;;;;;;15.80;1.00;;;;;;4994318;28;19909;-85
2024/03/03 12:15:12;;;;;;;;;;;15.80;1.00;;;;;;4993519;28;19995;-87
2024/03/03 12:17:42;;;;;;;;;;;15.90;1.00;;;;;;5026495;28;19985;-84
2024/03/03 12:20:43;;;;;;;;;;;16.00;1.00;;;;;;5024631;28;19945;-82
2024/03/03 12:23:18;;;;;;;;;;;16.10;1.00;;;;;;4997911;28;20001;-84
2024/03/03 12:26:00;;;;;;;;;;;16.20;1.00;;;;;;5010518;28;20320;-86
2024/03/03 12:28:42;;;;;;;;;;;16.30;1.00;;;;;;4992897;28;20008;-83
2024/03/03 12:31:21;;;;;;;;;;;16.40;1.00;;;;;;5025562;28;20194;-83
2024/03/03 12:34:00;;;;;;;;;;;16.50;1.00;;;;;;5006947;28;19920;-82
2024/03/03 12:36:42;;;;;;;;;;;16.60;1.00;;;;;;5001776;28;19933;-82
2024/03/03 12:39:07;;;;;;;;;;;16.60;1.00;;;;;;5026195;28;19983;-83
2024/03/03 12:41:45;;;;;;;;;;;16.70;1.00;;;;;;5050494;28;19981;-83
2024/03/03 12:44:11;;;;;;;;;;;16.70;1.00;;;;;;5035595;28;20612;-86
2024/03/03 12:46:40;;;;;;;;;;;16.80;1.00;;;;;;5033351;28;19917;-86
2024/03/03 12:49:06;;;;;;;;;;;16.80;1.00;;;;;;5017330;28;20368;-84
2024/03/03 12:57:43;;;;;;;;;;;16.90;1.00;;;;;;5035522;28;19916;-86
2024/03/03 13:00:42;;;;;;;;;;;17.00;1.00;;;;;;5022639;28;20000;-86
2024/03/03 13:03:12;;;;;;;;;;;16.90;1.00;;;;;;5045180;28;19916;-86
2024/03/03 13:05:42;;;;;;;;;;;17.00;1.00;;;;;;5032999;28;20353;-87
2024/03/03 13:08:10;;;;;;;;;;;17.00;1.00;;;;;;5033931;28;19938;-88
2024/03/03 13:10:42;;;;;;;;;;;16.90;1.00;;;;;;5050297;28;19913;-88
2024/03/03 13:13:12;;;;;;;;;;;16.90;1.00;;;;;;5034673;28;19912;-84
2024/03/03 13:16:12;;;;;;;;;;;16.90;1.00;;;;;;5023378;28;19916;-84
2024/03/03 13:18:42;;;;;;;;;;;17.00;1.00;;;;;;5016808;28;19910;-83
2024/03/03 13:21:42;;;;;;;;;;;17.00;1.00;;;;;;5021237;28;20272;-77
2024/03/03 13:24:11;;;;;;;;;;;17.10;1.00;;;;;;5040249;28;19909;-78
2024/03/03 13:26:36;;;;;;;;;;;17.00;1.00;;;;;;5043989;28;20059;-78
2024/03/03 13:29:07;;;;;;;;;;;17.20;1.00;;;;;;5032603;28;19955;-74
2024/03/03 13:31:33;;;;;;;;;;;17.20;1.00;;;;;;5045602;28;19920;-74
2024/03/03 13:33:58;;;;;;;;;;;17.40;1.00;;;;;;5038256;28;19914;-74
2024/03/03 13:36:24;;;;;;;;;;;17.60;1.00;;;;;;5034613;28;19963;-76
2024/03/03 13:38:50;;;;;;;;;;;17.70;1.00;;;;;;5042817;28;19913;-74
2024/03/03 13:41:15;;;;;;;;;;;17.90;1.00;;;;;;5033537;28;19913;-74
2024/03/03 13:43:42;;;;;;;;;;;18.00;1.00;;;;;;5034224;28;20031;-74
2024/03/03 13:46:07;;;;;;;;;;;18.10;1.00;;;;;;5041393;28;19920;-74
2024/03/03 13:48:34;;;;;;;;;;;18.10;1.00;;;;;;5044346;28;19916;-74
2024/03/03 13:50:59;;;;;;;;;;;18.20;1.00;;;;;;5043784;28;20300;-74
2024/03/03 13:53:25;;;;;;;;;;;18.30;1.00;;;;;;5049888;28;19912;-73
2024/03/03 13:55:51;;;;;;;;;;;18.40;1.00;;;;;;5036389;28;19917;-75
2024/03/03 13:58:16;;;;;;;;;;;18.40;1.00;;;;;;5014275;28;19909;-75
2024/03/03 14:01:00;;;;;;;;;;;18.40;1.00;;;;;;5030996;28;19909;-75
2024/03/03 14:03:42;;;;;;;;;;;18.40;1.00;;;;;;5047413;28;19966;-75
2024/03/03 14:06:13;;;;;;;;;;;18.30;1.00;;;;;;5046935;28;19913;-75
2024/03/03 14:08:39;;;;;;;;;;;18.30;1.00;;;;;;5031903;28;19917;-75
2024/03/03 14:11:05;;;;;;;;;;;18.50;1.00;;;;;;5048136;28;20337;-72
2024/03/03 14:13:36;;;;;;;;;;;18.50;1.00;;;;;;5056212;28;19913;-76
2024/03/03 14:22:07;;;;;;;;;;;18.60;1.00;;;;;;5043161;28;19916;-78
2024/03/03 14:27:38;;;;;;;;;;;18.70;1.00;;;;;;5051639;28;19928;-77
2024/03/03 14:30:18;;;;;;;;;;;18.90;1.00;;;;;;5051875;28;19991;-77
2024/03/03 14:32:54;;;;;;;;;;;18.90;1.00;;;;;;5042764;28;19913;-76
2024/03/03 14:35:19;;;;;;;;;;;19.00;1.00;;;;;;5050158;28;19910;-76
2024/03/03 14:37:54;;;;;;;;;;;19.10;1.00;;;;;;5039861;28;20028;-78
2024/03/03 14:40:24;;;;;;;;;;;19.10;1.00;;;;;;5034034;28;19909;-76
2024/03/03 14:43:06;;;;;;;;;;;19.20;1.00;;;;;;5049608;28;19974;-76
2024/03/03 14:45:34;;;;;;;;;;;19.20;1.00;;;;;;5033047;28;19913;-74
2024/03/03 14:48:12;;;;;;;;;;;19.10;1.00;;;;;;5036603;28;19921;-75
2024/03/03 14:50:37;;;;;;;;;;;19.20;1.00;;;;;;5053301;28;19952;-74
2024/03/03 14:53:06;;;;;;;;;;;19.10;1.00;;;;;;5023001;28;19961;-75
2024/03/03 14:58:34;;;;;;;;;;;19.10;1.00;;;;;;5054933;28;19916;-76
2024/03/03 15:01:00;;;;;;;;;;;19.10;1.00;;;;;;5055957;28;19909;-75
2024/03/03 15:03:48;;;;;;;;;;;19.00;1.00;;;;;;5050843;28;19921;-75
2024/03/03 15:06:24;;;;;;;;;;;18.90;1.00;;;;;;5028400;28;19916;-74
2024/03/03 15:08:49;;;;;;;;;;;18.90;1.00;;;;;;5041731;28;20052;-75
2024/03/03 15:11:15;;;;;;;;;;;18.90;1.00;;;;;;5052036;28;19988;-75
2024/03/03 15:13:42;;;;;;;;;;;19.00;1.00;;;;;;5054333;28;20333;-75
2024/03/03 15:16:12;;;;;;;;;;;19.00;1.00;;;;;;5040655;28;19920;-75
2024/03/03 15:18:48;;;;;;;;;;;19.10;1.00;;;;;;5036062;28;19909;-75
2024/03/03 15:21:19;;;;;;;;;;;19.10;1.00;;;;;;5022469;28;19959;-75
2024/03/03 15:23:54;;;;;;;;;;;19.10;1.00;;;;;;5037549;28;19924;-75
2024/03/03 15:29:42;;;;;;;;;;;19.10;1.00;;;;;;5054493;28;19959;-76
2024/03/03 15:32:24;;;;;;;;;;;19.10;1.00;;;;;;5041449;28;20004;-77
2024/03/03 15:35:12;;;;;;;;;;;19.10;1.00;;;;;;5055628;28;19917;-77
2024/03/03 15:37:43;;;;;;;;;;;19.10;1.00;;;;;;5026948;28;19909;-77
2024/03/03 15:40:42;;;;;;;;;;;19.10;1.00;;;;;;5036120;28;19913;-77
2024/03/03 15:43:07;;;;;;;;;;;19.10;1.00;;;;;;5048550;28;19920;-77
2024/03/03 15:45:37;;;;;;;;;;;19.00;1.00;;;;;;5041651;28;19917;-75
2024/03/03 15:48:04;;;;;;;;;;;19.00;1.00;;;;;;5041765;28;19976;-75
2024/03/03 15:50:42;;;;;;;;;;;19.30;1.00;;;;;;5035418;28;19937;-74
2024/03/03 15:53:12;;;;;;;;;;;19.30;1.00;;;;;;5035072;28;19913;-76
2024/03/03 15:55:37;;;;;;;;;;;19.50;1.00;;;;;;5044648;28;19953;-74
2024/03/03 15:58:03;;;;;;;;;;;20.00;1.00;;;;;;5031623;28;19968;-74
2024/03/03 16:01:00;;;;;;;;;;;20.70;1.00;;;;;;5033653;28;19919;-79
2024/03/03 16:13:12;;;;;;;;;;;22.40;1.00;;;;;;5044357;28;19919;-79
2024/03/03 16:15:42;;;;;;;;;;;22.70;1.00;;;;;;5049057;28;19920;-79
2024/03/03 16:18:08;;;;;;;;;;;22.50;1.00;;;;;;5034353;28;19948;-78
2024/03/03 16:20:37;;;;;;;;;;;22.20;1.00;;;;;;5048267;28;19919;-79
2024/03/03 16:23:12;;;;;;;;;;;22.00;1.00;;;;;;5043431;28;19912;-78
2024/03/03 16:26:06;;;;;;;;;;;21.80;1.00;;;;;;5054205;28;20369;-78
2024/03/03 16:31:42;;;;;;;;;;;21.40;1.00;;;;;;5039033;28;19952;-73
2024/03/03 16:34:08;;;;;;;;;;;21.30;1.00;;;;;;5044335;28;20438;-74
2024/03/03 16:36:33;;;;;;;;;;;21.20;1.00;;;;;;5046790;28;19914;-73
2024/03/03 16:39:00;;;;;;;;;;;20.90;1.00;;;;;;5048989;28;19963;-74
2024/03/03 16:41:26;;;;;;;;;;;20.70;1.00;;;;;;5048473;28;19966;-72
2024/03/03 16:43:51;;;;;;;;;;;20.30;1.00;;;;;;5046875;28;19913;-73
2024/03/03 16:46:17;;;;;;;;;;;19.80;1.00;;;;;;5038318;28;19913;-78
2024/03/03 16:49:18;;;;;;;;;;;19.40;1.00;;;;;;5050071;28;19921;-79
2024/03/03 16:57:52;;;;;;;;;;;18.00;1.00;;;;;;5040169;28;19920;-80
2024/03/03 17:00:42;;;;;;;;;;;17.50;1.00;;;;;;5059445;28;19909;-79
2024/03/03 17:03:12;;;;;;;;;;;17.10;1.00;;;;;;5053007;28;20276;-79
2024/03/03 17:06:12;;;;;;;;;;;16.70;1.00;;;;;;5053935;28;19913;-90
2024/03/03 17:08:38;;;;;;;;;;;16.10;1.00;;;;;;5033857;28;19921;-82
2024/03/03 17:11:12;;;;;;;;;;;16.00;1.00;;;;;;5033959;28;19999;-81
2024/03/03 17:16:40;;;;;;;;;;;15.30;1.00;;;;;;5040139;28;20115;-80
2024/03/03 17:19:12;;;;;;;;;;;15.10;1.00;;;;;;5035249;28;20012;-80
2024/03/03 17:21:38;;;;;;;;;;;14.90;1.00;;;;;;5048188;28;19919;-78
2024/03/03 17:24:03;;;;;;;;;;;14.60;1.00;;;;;;5040066;28;19992;-79
2024/03/03 17:26:30;;;;;;;;;;;14.40;1.00;;;;;;5044869;28;19913;-80
2024/03/03 17:29:12;;;;;;;;;;;14.20;1.00;;;;;;5035481;28;19932;-78
2024/03/03 17:31:42;;;;;;;;;;;13.80;1.00;;;;;;5037654;28;19924;-86
2024/03/03 17:34:08;;;;;;;;;;;13.80;1.00;;;;;;5032774;28;20027;-76
2024/03/03 17:36:42;;;;;;;;;;;13.60;1.00;;;;;;5017689;28;19929;-85
2024/03/03 17:42:12;;;;;;;;;;;13.20;1.00;;;;;;5019880;28;19916;-81
2024/03/03 17:45:13;;;;;;;;;;;13.00;1.00;;;;;;5018288;28;19919;-80
2024/03/03 17:47:39;;;;;;;;;;;12.80;1.00;;;;;;5035271;28;19956;-81
2024/03/03 17:56:10;;;;;;;;;;;12.30;1.00;;;;;;5037673;28;19916;-87
2024/03/03 17:59:00;;;;;;;;;;;12.10;1.00;;;;;;5022830;28;19913;-84
2024/03/03 18:01:30;;;;;;;;;;;12.00;1.00;;;;;;5046526;28;20372;-76
2024/03/03 18:07:06;;;;;;;;;;;11.80;1.00;;;;;;5056761;28;19970;-76
2024/03/03 18:09:36;;;;;;;;;;;11.70;1.00;;;;;;5056864;28;19979;-77
2024/03/03 18:12:18;;;;;;;;;;;11.50;1.00;;;;;;5055675;28;19917;-76
2024/03/03 18:14:49;;;;;;;;;;;11.50;1.00;;;;;;5046294;28;19912;-77
2024/03/03 18:17:38;;;;;;;;;;;11.30;1.00;;;;;;5046913;28;19920;-75
2024/03/03 18:20:12;;;;;;;;;;;11.30;1.00;;;;;;5045999;28;19912;-75
2024/03/03 18:22:48;;;;;;;;;;;11.20;1.00;;;;;;5056735;28;19993;-75
2024/03/03 18:25:48;;;;;;;;;;;11.10;1.00;;;;;;5056785;28;19924;-76
2024/03/03 18:28:48;;;;;;;;;;;11.00;1.00;;;;;;5053170;28;19963;-76
2024/03/03 18:34:17;;;;;;;;;;;10.80;1.00;;;;;;5045230;28;19960;-80
2024/03/03 18:39:50;;;;;;;;;;;10.70;1.00;;;;;;5045897;28;19908;-82
2024/03/03 18:45:42;;;;;;;;;;;10.50;1.00;;;;;;5036958;28;20388;-77
2024/03/03 18:51:13;;;;;;;;;;;10.30;1.00;;;;;;5047188;28;20355;-77
2024/03/03 18:53:42;;;;;;;;;;;10.30;1.00;;;;;;5046636;28;19917;-76
2024/03/03 18:56:12;;;;;;;;;;;10.20;1.00;;;;;;5049515;28;19954;-76
2024/03/03 19:01:41;;;;;;;;;;;10.10;1.00;;;;;;5035164;28;19928;-75
2024/03/03 19:04:08;;;;;;;;;;;10.00;1.00;;;;;;5045684;28;19916;-74
2024/03/03 19:06:42;;;;;;;;;;;10.00;1.00;;;;;;5049984;28;19968;-74
2024/03/03 19:09:11;;;;;;;;;;;9.90;1.00;;;;;;5036221;28;20015;-73
2024/03/03 19:11:37;;;;;;;;;;;9.80;1.00;;;;;;5041150;28;19924;-74
2024/03/03 19:14:09;;;;;;;;;;;9.80;1.00;;;;;;5039321;28;19921;-74
2024/03/03 19:16:42;;;;;;;;;;;9.70;1.00;;;;;;5044027;28;19913;-74
2024/03/03 19:19:12;;;;;;;;;;;9.70;1.00;;;;;;5035673;28;19913;-74
2024/03/03 19:21:42;;;;;;;;;;;9.70;1.00;;;;;;5035998;28;19909;-74
2024/03/03 19:24:12;;;;;;;;;;;9.60;1.00;;;;;;5036017;28;19963;-73
2024/03/03 19:26:42;;;;;;;;;;;9.60;1.00;;;;;;5035706;28;20016;-75
2024/03/03 19:29:08;;;;;;;;;;;9.40;1.00;;;;;;5039214;28;20356;-75
2024/03/03 19:37:21;;;;;;;;;;;9.40;1.00;;;;;;5039597;28;19935;-75
2024/03/03 19:40:12;;;;;;;;;;;9.30;1.00;;;;;;5041124;28;20368;-75
2024/03/03 19:42:38;;;;;;;;;;;9.20;1.00;;;;;;5034728;28;19913;-76
2024/03/03 19:45:04;;;;;;;;;;;9.20;1.00;;;;;;5047471;28;19916;-76
2024/03/03 19:47:48;;;;;;;;;;;9.20;1.00;;;;;;5035970;28;19917;-76